Time;durP1;ratioP1;P1;durP2;ratioP2;P2;SDS_P1;SDS_P2;PMS_P1;PMS_P2;Temp;Humidity;BMP_temperature;BMP_pressure;BME280_temperature;BME280_humidity;BME280_pressure;Samples;Min_cycle;Max_cycle;Signal;HPM_P1;HPM_P2
2023/11/08 00:00:36;;;;;;;14.25;10.45;;;;;;;-146.25;100.00;52520.28;2095941;28;31460;-70
2023/11/08 00:01:38;;;;;;;13.25;9.63;;;;;;;-146.25;100.00;52530.41;2096386;28;26820;-71
2023/11/08 00:02:40;;;;;;;16.02;10.35;;;;;;;-146.25;100.00;52518.25;2095757;28;35263;-70
2023/11/08 00:03:42;;;;;;;14.95;10.32;;;;;;;-146.25;100.00;52548.66;2087156;28;34448;-70
2023/11/08 00:04:44;;;;;;;14.95;9.18;;;;;;;-146.25;100.00;52530.41;2080808;28;37661;-70
2023/11/08 00:05:47;;;;;;;12.82;9.52;;;;;;;-146.25;100.00;52530.41;2087924;28;32349;-71
2023/11/08 00:06:48;;;;;;;13.35;10.13;;;;;;;-146.25;100.00;52544.59;2087198;28;32916;-71
2023/11/08 00:07:50;;;;;;;12.88;10.00;;;;;;;-146.25;100.00;52534.47;2087848;28;37346;-70
2023/11/08 00:08:52;;;;;;;11.60;9.18;;;;;;;-146.25;100.00;52532.44;2087782;28;32300;-71
2023/11/08 00:09:56;;;;;;;14.82;9.90;;;;;;;-146.25;100.00;52556.75;2078307;28;36966;-71
2023/11/08 00:10:59;;;;;;;15.32;10.02;;;;;;;-146.25;100.00;52520.28;2079150;28;30402;-71
2023/11/08 00:12:03;;;;;;;15.38;10.15;;;;;;;-146.25;100.00;52530.41;2088186;28;22747;-71
2023/11/08 00:13:05;;;;;;;14.63;9.80;;;;;;;-146.25;100.00;52502.03;2086801;28;34010;-71
2023/11/08 00:14:10;;;;;;;12.30;9.85;;;;;;;-146.25;100.00;52542.56;2087237;28;37358;-71
2023/11/08 00:15:11;;;;;;;11.52;9.63;;;;;;;-146.25;100.00;52554.75;2087799;28;38378;-71
2023/11/08 00:16:13;;;;;;;15.35;10.27;;;;;;;-146.25;100.00;52534.47;2080402;28;32282;-71
2023/11/08 00:17:16;;;;;;;12.95;9.80;;;;;;;-146.25;100.00;52512.16;2080388;28;32332;-71
2023/11/08 00:18:17;;;;;;;12.73;10.05;;;;;;;-146.25;100.00;52530.41;2089314;28;32253;-71
2023/11/08 00:19:19;;;;;;;14.63;10.10;;;;;;;-146.25;100.00;52536.50;2089288;28;34367;-71
2023/11/08 00:20:21;;;;;;;12.38;9.32;;;;;;;-146.25;100.00;52518.25;2071774;28;36636;-71
2023/11/08 00:21:24;;;;;;;12.32;10.18;;;;;;;-146.25;100.00;52546.63;2072926;28;20042;-71
2023/11/08 00:22:27;;;;;;;10.98;8.95;;;;;;;-146.25;100.00;52518.25;2090830;28;32044;-71
2023/11/08 00:23:29;;;;;;;14.90;10.10;;;;;;;-146.25;100.00;52566.91;2088890;28;36672;-71
2023/11/08 00:24:31;;;;;;;15.88;9.80;;;;;;;-146.25;100.00;52532.44;2089750;28;21062;-71
2023/11/08 00:25:35;;;;;;;12.65;9.60;;;;;;;-146.25;100.00;52526.34;2088434;28;37117;-71
2023/11/08 00:26:37;;;;;;;11.23;8.90;;;;;;;-146.25;100.00;52530.41;2089053;28;34047;-71
2023/11/08 00:27:39;;;;;;;14.57;9.43;;;;;;;-146.25;100.00;52504.03;2089223;28;20085;-71
2023/11/08 00:28:41;;;;;;;11.90;8.90;;;;;;;-146.25;100.00;52558.78;2089271;28;28596;-71
2023/11/08 00:29:46;;;;;;;13.15;8.98;;;;;;;-146.25;100.00;52528.38;2080818;28;20049;-71
2023/11/08 00:30:48;;;;;;;11.95;8.82;;;;;;;-146.25;100.00;52530.41;2080623;28;20096;-71
2023/11/08 00:31:51;;;;;;;12.80;9.48;;;;;;;-146.25;100.00;52538.53;2088233;28;31153;-71
2023/11/08 00:32:52;;;;;;;11.13;9.07;;;;;;;-146.25;100.00;52491.88;2071851;28;30778;-71
2023/11/08 00:33:54;;;;;;;11.88;9.27;;;;;;;-146.25;100.00;52461.47;2072117;28;20105;-70
2023/11/08 00:34:56;;;;;;;13.13;9.05;;;;;;;-146.25;100.00;52538.53;2080193;28;30075;-71
2023/11/08 00:35:58;;;;;;;12.43;9.60;;;;;;;-146.25;100.00;52548.66;2079885;28;32761;-72
2023/11/08 00:37:00;;;;;;;10.90;8.90;;;;;;;-146.25;100.00;52542.56;2080284;28;32122;-71
2023/11/08 00:38:02;;;;;;;12.10;9.05;;;;;;;-146.25;100.00;52522.28;2080073;28;29255;-72
2023/11/08 00:39:03;;;;;;;13.50;9.18;;;;;;;-146.25;100.00;52528.38;2089240;28;25444;-71
2023/11/08 00:40:06;;;;;;;13.23;9.18;;;;;;;-146.25;100.00;52512.16;2089440;28;20044;-71
2023/11/08 00:41:08;;;;;;;14.85;9.68;;;;;;;-146.25;100.00;52554.75;2089567;28;28806;-71
2023/11/08 00:42:10;;;;;;;10.48;8.82;;;;;;;-146.25;100.00;52526.34;2088970;28;30152;-71
2023/11/08 00:43:12;;;;;;;12.05;9.13;;;;;;;-146.25;100.00;52520.28;2089290;28;28793;-71
2023/11/08 00:44:13;;;;;;;12.90;9.35;;;;;;;-146.25;100.00;52560.81;2088213;28;32785;-72
2023/11/08 00:45:16;;;;;;;12.18;10.30;;;;;;;-146.25;100.00;52528.38;2088787;28;28125;-71
2023/11/08 00:46:19;;;;;;;13.25;9.82;;;;;;;-146.25;100.00;52497.97;2080388;28;20045;-71
2023/11/08 00:47:22;;;;;;;11.57;9.52;;;;;;;-146.25;100.00;52536.50;2080152;28;31313;-71
2023/11/08 00:48:24;;;;;;;14.43;9.73;;;;;;;-146.25;100.00;52526.34;2080165;28;22932;-71
2023/11/08 00:49:26;;;;;;;11.65;9.63;;;;;;;-146.25;100.00;52532.44;2080738;28;30249;-71
2023/11/08 00:50:29;;;;;;;12.10;9.70;;;;;;;-146.25;100.00;52495.94;2079642;28;30600;-72
2023/11/08 00:51:32;;;;;;;14.82;9.60;;;;;;;-146.25;100.00;52510.13;2080712;28;30244;-71
2023/11/08 00:52:36;;;;;;;12.77;9.95;;;;;;;-146.25;100.00;52512.16;2071740;28;24712;-71
2023/11/08 00:53:39;;;;;;;14.85;9.40;;;;;;;-146.25;100.00;52550.69;2073354;28;24293;-72
2023/11/08 00:54:41;;;;;;;12.80;9.93;;;;;;;-146.25;100.00;52502.03;2088659;28;20337;-71
2023/11/08 00:55:43;;;;;;;12.45;10.10;;;;;;;-146.25;100.00;52554.75;2089093;28;25701;-72
2023/11/08 00:56:45;;;;;;;14.52;9.65;;;;;;;-146.25;100.00;52544.59;2089444;28;20030;-71
2023/11/08 00:57:47;;;;;;;13.35;10.48;;;;;;;-146.25;100.00;52532.44;2089320;28;20080;-72
2023/11/08 00:58:49;;;;;;;12.00;9.40;;;;;;;-146.25;100.00;52532.44;2079543;28;29562;-71
2023/11/08 00:59:50;;;;;;;15.82;9.68;;;;;;;-146.25;100.00;52526.34;2080282;28;25309;-71
2023/11/08 01:00:52;;;;;;;14.43;10.65;;;;;;;-146.25;100.00;52534.47;2088612;28;20042;-71
2023/11/08 01:01:54;;;;;;;14.98;10.73;;;;;;;-146.25;100.00;52518.25;2088811;28;31968;-71
2023/11/08 01:02:56;;;;;;;13.75;10.05;;;;;;;-146.25;100.00;52546.63;2079950;28;31469;-72
2023/11/08 01:03:59;;;;;;;12.75;10.30;;;;;;;-146.25;100.00;52542.56;2081309;28;20038;-71
2023/11/08 01:05:01;;;;;;;11.88;9.82;;;;;;;-146.25;100.00;52489.84;2088023;28;25782;-71
2023/11/08 01:06:03;;;;;;;12.48;10.00;;;;;;;-146.25;100.00;52500.00;2079940;28;29383;-71
2023/11/08 01:07:05;;;;;;;11.82;10.00;;;;;;;-146.25;100.00;52481.75;2080764;28;20554;-71
2023/11/08 01:08:07;;;;;;;17.08;9.93;;;;;;;-146.25;100.00;52546.63;2088166;28;29366;-72
2023/11/08 01:09:10;;;;;;;12.02;9.68;;;;;;;-146.25;100.00;52508.09;2088390;28;27384;-71
2023/11/08 01:10:12;;;;;;;14.70;9.82;;;;;;;-146.25;100.00;52546.63;2089506;28;20025;-71
2023/11/08 01:11:14;;;;;;;10.05;8.60;;;;;;;-146.25;100.00;52510.13;2088341;28;30942;-71
2023/11/08 01:12:16;;;;;;;11.93;9.57;;;;;;;-146.25;100.00;52532.44;2089226;28;25413;-71
2023/11/08 01:13:18;;;;;;;12.73;9.57;;;;;;;-146.25;100.00;52508.09;2088499;28;28182;-71
2023/11/08 01:14:21;;;;;;;12.40;9.60;;;;;;;-146.25;100.00;52562.84;2088978;28;33958;-71
2023/11/08 01:15:22;;;;;;;11.82;9.60;;;;;;;-146.25;100.00;52497.97;2088562;28;29625;-71
2023/11/08 01:16:24;;;;;;;15.10;9.40;;;;;;;-146.25;100.00;52518.25;2089354;28;21028;-72
2023/11/08 01:17:30;;;;;;;12.38;9.52;;;;;;;-146.25;100.00;52534.47;2088758;28;27966;-71
2023/11/08 01:18:34;;;;;;;11.73;9.57;;;;;;;-146.25;100.00;52510.13;2088986;28;29427;-71
2023/11/08 01:19:36;;;;;;;12.60;9.60;;;;;;;-146.25;100.00;52532.44;2080031;28;20974;-71
2023/11/08 01:20:42;;;;;;;14.30;9.93;;;;;;;-146.25;100.00;52508.09;2072479;28;20030;-72
2023/11/08 01:21:45;;;;;;;11.98;9.02;;;;;;;-146.25;100.00;52540.53;2079932;28;30389;-71
2023/11/08 01:22:48;;;;;;;14.23;9.25;;;;;;;-146.25;100.00;52581.09;2080438;28;20112;-72
2023/11/08 01:23:54;;;;;;;15.05;9.32;;;;;;;-146.25;100.00;52514.19;2079619;28;28463;-71
2023/11/08 01:24:56;;;;;;;11.93;9.13;;;;;;;-146.25;100.00;52540.53;2079975;28;35518;-71
2023/11/08 01:25:58;;;;;;;13.00;9.65;;;;;;;-146.25;100.00;52534.47;2080208;28;21016;-72
2023/11/08 01:27:01;;;;;;;11.73;9.02;;;;;;;-146.25;100.00;52542.56;2088376;28;30055;-71
2023/11/08 01:28:03;;;;;;;12.40;9.40;;;;;;;-146.25;100.00;52542.56;2087877;28;31471;-71
2023/11/08 01:29:05;;;;;;;12.30;9.25;;;;;;;-146.25;100.00;52562.84;2080192;28;23559;-71
2023/11/08 01:30:08;;;;;;;12.13;8.82;;;;;;;-146.25;100.00;52546.63;2079930;28;32294;-71
2023/11/08 01:31:09;;;;;;;11.73;8.55;;;;;;;-146.25;100.00;52506.06;2087394;28;35529;-71
2023/11/08 01:32:11;;;;;;;13.35;8.73;;;;;;;-146.25;100.00;52558.78;2088414;28;20965;-71
2023/11/08 01:33:13;;;;;;;13.98;8.57;;;;;;;-146.25;100.00;52534.47;2080359;28;27881;-71
2023/11/08 01:34:19;;;;;;;11.30;8.18;;;;;;;-146.25;100.00;52522.28;2072451;28;20926;-71
2023/11/08 01:35:22;;;;;;;11.45;8.00;;;;;;;-146.25;100.00;52518.25;2080483;28;20038;-71
2023/11/08 01:36:24;;;;;;;11.38;7.85;;;;;;;-146.25;100.00;52546.63;2088732;28;21423;-70
2023/11/08 01:37:27;;;;;;;11.13;7.88;;;;;;;-146.25;100.00;52540.53;2080527;28;22503;-71
2023/11/08 01:38:29;;;;;;;10.52;7.68;;;;;;;-146.25;100.00;52554.75;2080321;28;20073;-71
2023/11/08 01:39:31;;;;;;;9.63;7.47;;;;;;;-146.25;100.00;52542.56;2088768;28;31831;-71
2023/11/08 01:40:33;;;;;;;10.45;7.10;;;;;;;-146.25;100.00;52585.16;2088326;28;29701;-71
2023/11/08 01:41:35;;;;;;;10.38;7.18;;;;;;;-146.25;100.00;52546.63;2080114;28;28193;-71
2023/11/08 01:42:37;;;;;;;10.20;6.53;;;;;;;-146.25;100.00;52524.31;2079357;28;34114;-71
2023/11/08 01:43:38;;;;;;;9.57;7.05;;;;;;;-146.25;100.00;52534.47;2080480;28;21077;-71
2023/11/08 01:44:40;;;;;;;7.63;6.18;;;;;;;-146.25;100.00;52530.41;2088522;28;28916;-71
2023/11/08 01:45:42;;;;;;;9.43;6.03;;;;;;;-146.25;100.00;52532.44;2088591;28;25720;-71
2023/11/08 01:46:48;;;;;;;9.88;6.18;;;;;;;-146.25;100.00;52524.31;2089190;28;20087;-72
2023/11/08 01:47:50;;;;;;;6.80;5.28;;;;;;;-146.25;100.00;52570.97;2080081;28;30827;-71
2023/11/08 01:48:53;;;;;;;7.60;6.25;;;;;;;-146.25;100.00;52514.19;2081032;28;26594;-71
2023/11/08 01:49:54;;;;;;;8.73;6.50;;;;;;;-146.25;100.00;52530.41;2070770;28;25983;-70
2023/11/08 01:50:56;;;;;;;7.72;5.78;;;;;;;-146.25;100.00;52550.69;2071850;28;30165;-71
2023/11/08 01:52:00;;;;;;;6.97;6.05;;;;;;;-146.25;100.00;52542.56;2089116;28;20041;-71
2023/11/08 01:53:02;;;;;;;7.03;5.75;;;;;;;-146.25;100.00;52542.56;2079816;28;26104;-71
2023/11/08 01:54:04;;;;;;;8.20;5.55;;;;;;;-146.25;100.00;52528.38;2079846;28;26744;-71
2023/11/08 01:55:07;;;;;;;7.65;5.65;;;;;;;-146.25;100.00;52542.56;2088748;28;24518;-71
2023/11/08 01:56:10;;;;;;;7.45;5.43;;;;;;;-146.25;100.00;52524.31;2079947;28;26054;-71
2023/11/08 01:57:12;;;;;;;9.93;5.47;;;;;;;-146.25;100.00;52534.47;2080625;28;20045;-71
2023/11/08 01:58:14;;;;;;;8.35;5.93;;;;;;;-146.25;100.00;52526.34;2079993;28;20128;-71
2023/11/08 01:59:18;;;;;;;8.82;6.20;;;;;;;-146.25;100.00;52526.34;2072002;28;20046;-71
2023/11/08 02:00:23;;;;;;;9.32;6.22;;;;;;;-146.25;100.00;52479.72;2080041;28;20053;-71
2023/11/08 02:01:25;;;;;;;7.47;5.85;;;;;;;-146.25;100.00;52544.59;2071143;28;20042;-71
2023/11/08 02:02:27;;;;;;;9.32;6.63;;;;;;;-146.25;100.00;52506.06;2071652;28;24377;-71
2023/11/08 02:03:31;;;;;;;6.47;5.85;;;;;;;-146.25;100.00;52522.28;2072224;28;20046;-72
2023/11/08 02:04:35;;;;;;;10.50;6.20;;;;;;;-146.25;100.00;52552.72;2079866;28;20077;-71
2023/11/08 02:05:37;;;;;;;8.70;6.15;;;;;;;-146.25;100.00;52500.00;2079302;28;26290;-71
2023/11/08 02:06:39;;;;;;;9.10;6.57;;;;;;;-146.25;100.00;52518.25;2079681;28;24497;-72
2023/11/08 02:07:41;;;;;;;8.73;6.55;;;;;;;-146.25;100.00;52497.97;2087990;28;30352;-71
2023/11/08 02:08:44;;;;;;;9.02;6.88;;;;;;;-146.25;100.00;52532.44;2071131;28;32841;-71
2023/11/08 02:09:47;;;;;;;9.15;6.38;;;;;;;-146.25;100.00;52518.25;2072076;28;26664;-71
2023/11/08 02:10:48;;;;;;;10.15;6.72;;;;;;;-146.25;100.00;52491.88;2080148;28;20903;-71
2023/11/08 02:11:50;;;;;;;9.80;7.15;;;;;;;-146.25;100.00;52518.25;2079847;28;22092;-71
2023/11/08 02:12:53;;;;;;;10.30;7.22;;;;;;;-146.25;100.00;52544.59;2087612;28;31353;-71
2023/11/08 02:13:57;;;;;;;9.38;7.07;;;;;;;-146.25;100.00;52514.19;2071245;28;20946;-71
2023/11/08 02:15:07;;;;;;;8.60;7.30;;;;;;;-146.25;100.00;52534.47;2064591;28;20046;-71
2023/11/08 02:16:10;;;;;;;11.00;6.95;;;;;;;-146.25;100.00;52534.47;2080968;28;30265;-71
2023/11/08 02:17:12;;;;;;;10.70;7.32;;;;;;;-146.25;100.00;52542.56;2088017;28;30252;-71
2023/11/08 02:18:15;;;;;;;8.30;7.22;;;;;;;-146.25;100.00;52546.63;2088141;28;32306;-71
2023/11/08 02:19:17;;;;;;;11.32;7.07;;;;;;;-146.25;100.00;52497.97;2087672;28;26582;-71
2023/11/08 02:20:19;;;;;;;12.80;8.38;;;;;;;-146.25;100.00;52518.25;2079207;28;22938;-71
2023/11/08 02:21:23;;;;;;;10.73;7.85;;;;;;;-146.25;100.00;52514.19;2080092;28;25080;-71
2023/11/08 02:22:27;;;;;;;12.15;8.00;;;;;;;-146.25;100.00;52518.25;2087381;28;34241;-72
2023/11/08 02:23:31;;;;;;;12.02;8.05;;;;;;;-146.25;100.00;52510.13;2071612;28;21046;-71
2023/11/08 02:24:33;;;;;;;11.85;8.45;;;;;;;-146.25;100.00;52516.22;2072392;28;21772;-72
2023/11/08 02:25:35;;;;;;;12.68;8.75;;;;;;;-146.25;100.00;52493.91;2087550;28;32725;-71
2023/11/08 02:26:39;;;;;;;13.65;9.45;;;;;;;-146.25;100.00;52516.22;2079638;28;33206;-72
2023/11/08 02:27:46;;;;;;;11.38;8.95;;;;;;;-146.25;100.00;52508.09;2080156;28;28468;-71
2023/11/08 02:28:47;;;;;;;13.52;9.77;;;;;;;-146.25;100.00;52528.38;2088002;28;29589;-71
2023/11/08 02:29:49;;;;;;;15.27;9.88;;;;;;;-146.25;100.00;52548.66;2087942;28;25136;-70
2023/11/08 02:30:53;;;;;;;13.55;10.13;;;;;;;-146.25;100.00;52508.09;2079176;28;30302;-71
2023/11/08 02:31:56;;;;;;;16.13;11.10;;;;;;;-146.25;100.00;52497.97;2079588;28;26838;-71
2023/11/08 02:32:57;;;;;;;15.93;10.38;;;;;;;-146.25;100.00;52532.44;2063602;28;28956;-71
2023/11/08 02:33:59;;;;;;;15.75;10.93;;;;;;;-146.25;100.00;52485.81;2071471;28;29015;-72
2023/11/08 02:35:01;;;;;;;17.55;12.50;;;;;;;-146.25;100.00;52542.56;2088040;28;28650;-70
2023/11/08 02:36:06;;;;;;;14.75;11.52;;;;;;;-146.25;100.00;52548.66;2088516;28;26310;-71
2023/11/08 02:37:07;;;;;;;13.63;11.30;;;;;;;-146.25;100.00;52540.53;2087828;28;35221;-72
2023/11/08 02:38:11;;;;;;;15.07;11.80;;;;;;;-146.25;100.00;52520.28;2078684;28;25090;-71
2023/11/08 02:39:14;;;;;;;14.95;11.88;;;;;;;-146.25;100.00;52510.13;2079986;28;20093;-71
2023/11/08 02:40:18;;;;;;;16.88;11.95;;;;;;;-146.25;100.00;52516.22;2088239;28;31476;-71
2023/11/08 02:41:20;;;;;;;16.30;12.52;;;;;;;-146.25;100.00;52489.84;2088088;28;26653;-72
2023/11/08 02:42:22;;;;;;;19.02;13.07;;;;;;;-146.25;100.00;52500.00;2088272;28;27302;-71
2023/11/08 02:43:25;;;;;;;17.95;12.65;;;;;;;-146.25;100.00;52548.66;2087592;28;20149;-72
2023/11/08 02:44:27;;;;;;;16.13;13.13;;;;;;;-146.25;100.00;52534.47;2087727;28;22884;-71
2023/11/08 02:45:29;;;;;;;19.10;14.07;;;;;;;-146.25;100.00;52506.06;2087514;28;20914;-71
2023/11/08 02:46:31;;;;;;;19.25;13.93;;;;;;;-146.25;100.00;52542.56;2087689;28;29783;-71
2023/11/08 02:47:32;;;;;;;19.90;13.45;;;;;;;-146.25;100.00;52489.84;2087921;28;31919;-72
2023/11/08 02:48:36;;;;;;;19.52;14.70;;;;;;;-146.25;100.00;52516.22;2079095;28;28212;-72
2023/11/08 02:49:38;;;;;;;18.60;14.43;;;;;;;-146.25;100.00;52510.13;2079479;28;27739;-71
2023/11/08 02:50:41;;;;;;;17.15;14.15;;;;;;;-146.25;100.00;52522.28;2087542;28;27400;-71
2023/11/08 02:51:44;;;;;;;19.33;13.82;;;;;;;-146.25;100.00;52552.72;2088517;28;20913;-72
2023/11/08 02:52:46;;;;;;;19.05;14.73;;;;;;;-146.25;100.00;52573.00;2079130;28;34855;-72
2023/11/08 02:53:48;;;;;;;24.25;15.60;;;;;;;-146.25;100.00;52532.44;2078971;28;32000;-71
2023/11/08 02:54:51;;;;;;;19.63;15.52;;;;;;;-146.25;100.00;52536.50;2079295;28;26173;-70
2023/11/08 02:55:56;;;;;;;19.85;15.25;;;;;;;-146.25;100.00;52560.81;2079444;28;29549;-71
2023/11/08 02:56:58;;;;;;;24.17;16.13;;;;;;;-146.25;100.00;52546.63;2088338;28;26823;-71
2023/11/08 02:58:00;;;;;;;19.50;14.95;;;;;;;-146.25;100.00;52516.22;2088085;28;27116;-71
2023/11/08 02:59:02;;;;;;;26.58;15.80;;;;;;;-146.25;100.00;52546.63;2088185;28;27573;-71
2023/11/08 03:00:07;;;;;;;22.40;16.92;;;;;;;-146.25;100.00;52532.44;2088131;28;20037;-71
2023/11/08 03:01:08;;;;;;;24.35;15.93;;;;;;;-146.25;100.00;52540.53;2087216;28;37632;-71
2023/11/08 03:02:10;;;;;;;21.35;16.08;;;;;;;-146.25;100.00;52502.03;2088047;28;23919;-72
2023/11/08 03:03:13;;;;;;;21.63;15.82;;;;;;;-146.25;100.00;52536.50;2088543;28;20041;-71
2023/11/08 03:04:15;;;;;;;23.92;17.02;;;;;;;-146.25;100.00;52530.41;2088019;28;29713;-71
2023/11/08 03:05:21;;;;;;;23.67;15.98;;;;;;;-146.25;100.00;52528.38;2088327;28;20096;-71
2023/11/08 03:06:23;;;;;;;23.30;16.65;;;;;;;-146.25;100.00;52532.44;2071134;28;20039;-71
2023/11/08 03:07:26;;;;;;;20.52;16.25;;;;;;;-146.25;100.00;52534.47;2071856;28;29397;-72
2023/11/08 03:08:29;;;;;;;23.92;16.63;;;;;;;-146.25;100.00;52526.34;2088001;28;20916;-72
2023/11/08 03:09:31;;;;;;;26.23;16.63;;;;;;;-146.25;100.00;52512.16;2088098;28;20053;-71
2023/11/08 03:10:35;;;;;;;23.65;16.60;;;;;;;-146.25;100.00;52546.63;2087841;28;20037;-72
2023/11/08 03:11:38;;;;;;;23.48;17.00;;;;;;;-146.25;100.00;52544.59;2087550;28;30126;-70
2023/11/08 03:12:39;;;;;;;23.70;18.65;;;;;;;-146.25;100.00;52534.47;2078883;28;23918;-72
2023/11/08 03:13:41;;;;;;;24.63;17.83;;;;;;;-146.25;100.00;52536.50;2079235;28;31408;-71
2023/11/08 03:14:46;;;;;;;22.92;17.48;;;;;;;-146.25;100.00;52510.13;2088013;28;24532;-71
2023/11/08 03:15:47;;;;;;;26.70;17.15;;;;;;;-146.25;100.00;52518.25;2079407;28;20042;-71
2023/11/08 03:16:49;;;;;;;24.10;16.90;;;;;;;-146.25;100.00;52546.63;2078754;28;33379;-71
2023/11/08 03:17:52;;;;;;;21.58;17.92;;;;;;;-146.25;100.00;52526.34;2088003;28;27974;-71
2023/11/08 03:18:54;;;;;;;23.23;17.40;;;;;;;-146.25;100.00;52540.53;2078988;28;20034;-71
2023/11/08 03:19:56;;;;;;;24.80;18.10;;;;;;;-146.25;100.00;52510.13;2079162;28;26992;-72
2023/11/08 03:20:58;;;;;;;24.75;17.92;;;;;;;-146.25;100.00;52542.56;2078901;28;29126;-70
2023/11/08 03:22:00;;;;;;;22.65;18.17;;;;;;;-146.25;100.00;52540.53;2087703;28;20042;-71
2023/11/08 03:23:02;;;;;;;24.38;18.42;;;;;;;-146.25;100.00;52566.91;2087919;28;36056;-71
2023/11/08 03:24:04;;;;;;;22.35;17.88;;;;;;;-146.25;100.00;52506.06;2079272;28;31681;-71
2023/11/08 03:25:11;;;;;;;22.90;17.75;;;;;;;-146.25;100.00;52512.16;2079212;28;32022;-71
2023/11/08 03:26:15;;;;;;;23.73;18.13;;;;;;;-146.25;100.00;52546.63;2079221;28;34983;-71
2023/11/08 03:27:18;;;;;;;24.85;18.45;;;;;;;-146.25;100.00;52526.34;2080697;28;20164;-71
2023/11/08 03:28:20;;;;;;;27.13;18.73;;;;;;;-146.25;100.00;52550.69;2087388;28;33046;-72
2023/11/08 03:29:21;;;;;;;25.35;18.42;;;;;;;-146.25;100.00;52530.41;2078621;28;29078;-71
2023/11/08 03:30:23;;;;;;;25.08;18.65;;;;;;;-146.25;100.00;52556.75;2078823;28;20096;-72
2023/11/08 03:31:25;;;;;;;22.27;17.20;;;;;;;-146.25;100.00;52518.25;2086842;28;36413;-72
2023/11/08 03:32:27;;;;;;;23.60;18.05;;;;;;;-146.25;100.00;52552.72;2079059;28;34300;-71
2023/11/08 03:33:30;;;;;;;24.17;17.77;;;;;;;-146.25;100.00;52524.31;2071366;28;20051;-71
2023/11/08 03:34:33;;;;;;;24.33;17.52;;;;;;;-146.25;100.00;52530.41;2078921;28;36073;-71
2023/11/08 03:35:34;;;;;;;23.50;17.95;;;;;;;-146.25;100.00;52550.69;2086627;28;34391;-71
2023/11/08 03:36:37;;;;;;;25.08;18.55;;;;;;;-146.25;100.00;52502.03;2088521;28;20065;-71
2023/11/08 03:37:43;;;;;;;24.23;17.80;;;;;;;-146.25;100.00;52530.41;2078448;28;36533;-71
2023/11/08 03:38:44;;;;;;;22.27;18.20;;;;;;;-146.25;100.00;52502.03;2079237;28;34631;-71
2023/11/08 03:39:46;;;;;;;22.27;17.85;;;;;;;-146.25;100.00;52530.41;2079848;28;20034;-71
2023/11/08 03:40:48;;;;;;;21.50;16.90;;;;;;;-146.25;100.00;52530.41;2079384;28;34170;-71
2023/11/08 03:41:50;;;;;;;24.23;17.75;;;;;;;-146.25;100.00;52528.38;2087594;28;34854;-71
2023/11/08 03:42:52;;;;;;;22.98;17.45;;;;;;;-146.25;100.00;52532.44;2088434;28;20953;-72
2023/11/08 03:43:56;;;;;;;23.13;17.33;;;;;;;-146.25;100.00;52554.75;2088037;28;20048;-72
2023/11/08 03:44:58;;;;;;;22.20;17.90;;;;;;;-146.25;100.00;52510.13;2087558;28;33015;-72
2023/11/08 03:46:00;;;;;;;22.45;17.42;;;;;;;-146.25;100.00;52516.22;2088080;28;20131;-71
2023/11/08 03:47:02;;;;;;;20.75;17.17;;;;;;;-146.25;100.00;52516.22;2087546;28;34242;-71
2023/11/08 03:48:03;;;;;;;22.55;17.73;;;;;;;-146.25;100.00;52518.25;2087525;28;32502;-71
2023/11/08 03:49:05;;;;;;;21.77;16.88;;;;;;;-146.25;100.00;52538.53;2087773;28;36362;-71
2023/11/08 03:50:08;;;;;;;22.15;17.65;;;;;;;-146.25;100.00;52504.03;2089230;28;30949;-72
2023/11/08 03:51:11;;;;;;;20.27;16.25;;;;;;;-146.25;100.00;52556.75;2088722;28;33286;-72
2023/11/08 03:52:13;;;;;;;21.85;16.85;;;;;;;-146.25;100.00;52524.31;2080358;28;33200;-72
2023/11/08 03:53:14;;;;;;;20.92;15.85;;;;;;;-146.25;100.00;52542.56;2080722;28;35575;-72
2023/11/08 03:54:16;;;;;;;20.20;15.93;;;;;;;-146.25;100.00;52554.75;2080972;28;20053;-71
2023/11/08 03:55:18;;;;;;;21.85;16.20;;;;;;;-146.25;100.00;52562.84;2080523;28;35480;-72
2023/11/08 03:56:20;;;;;;;20.65;16.73;;;;;;;-146.25;100.00;52544.59;2088919;28;37708;-72
2023/11/08 03:57:22;;;;;;;21.15;16.52;;;;;;;-146.25;100.00;52520.28;2089252;28;34678;-71
2023/11/08 03:58:24;;;;;;;21.50;17.15;;;;;;;-146.25;100.00;52540.53;2080155;28;35299;-71
2023/11/08 03:59:25;;;;;;;21.40;16.25;;;;;;;-146.25;100.00;52552.72;2080046;28;34219;-71
2023/11/08 04:00:29;;;;;;;22.90;16.50;;;;;;;-146.25;100.00;52550.69;2080498;28;27069;-71
2023/11/08 04:01:31;;;;;;;19.83;15.88;;;;;;;-146.25;100.00;52491.88;2081129;28;35111;-72
2023/11/08 04:02:34;;;;;;;19.55;15.63;;;;;;;-146.25;100.00;52500.00;2088504;28;21236;-72
2023/11/08 04:03:35;;;;;;;17.05;15.15;;;;;;;-146.25;100.00;52536.50;2088274;28;33267;-72
2023/11/08 04:04:37;;;;;;;19.58;14.93;;;;;;;-146.25;100.00;52550.69;2089537;28;20042;-72
2023/11/08 04:05:39;;;;;;;21.30;16.35;;;;;;;-146.25;100.00;52526.34;2088636;28;36526;-72
2023/11/08 04:06:42;;;;;;;20.30;16.05;;;;;;;-146.25;100.00;52575.00;2080273;28;32412;-72
2023/11/08 04:07:44;;;;;;;22.77;15.95;;;;;;;-146.25;100.00;52522.28;2080461;28;33670;-72
2023/11/08 04:08:46;;;;;;;18.85;15.68;;;;;;;-146.25;100.00;52528.38;2089098;28;34486;-72
2023/11/08 04:09:48;;;;;;;21.83;16.10;;;;;;;-146.25;100.00;52526.34;2089508;28;20038;-72
2023/11/08 04:10:50;;;;;;;21.17;15.50;;;;;;;-146.25;100.00;52542.56;2088833;28;36916;-72
2023/11/08 04:11:53;;;;;;;17.20;13.95;;;;;;;-146.25;100.00;52530.41;2089766;28;20088;-72
2023/11/08 04:12:55;;;;;;;17.92;15.05;;;;;;;-146.25;100.00;52528.38;2088773;28;33824;-71
2023/11/08 04:13:57;;;;;;;18.63;15.35;;;;;;;-146.25;100.00;52552.72;2080233;28;37650;-72
2023/11/08 04:15:01;;;;;;;19.02;14.85;;;;;;;-146.25;100.00;52552.72;2081601;28;20077;-71
2023/11/08 04:16:04;;;;;;;18.13;15.30;;;;;;;-146.25;100.00;52544.59;2088828;28;36662;-72
2023/11/08 04:17:10;;;;;;;18.13;14.75;;;;;;;-146.25;100.00;52530.41;2089090;28;32458;-72
2023/11/08 04:18:12;;;;;;;18.25;14.60;;;;;;;-146.25;100.00;52534.47;2080303;28;33083;-71
2023/11/08 04:19:14;;;;;;;18.05;14.10;;;;;;;-146.25;100.00;52516.22;2064500;28;33110;-71
2023/11/08 04:20:16;;;;;;;16.27;13.88;;;;;;;-146.25;100.00;52518.25;2072916;28;20165;-72
2023/11/08 04:21:18;;;;;;;15.05;13.43;;;;;;;-146.25;100.00;52534.47;2079909;28;39306;-72
2023/11/08 04:22:21;;;;;;;18.85;14.00;;;;;;;-146.25;100.00;52554.75;2072414;28;32530;-72
2023/11/08 04:23:23;;;;;;;16.95;13.30;;;;;;;-146.25;100.00;52508.09;2080571;28;33799;-70
2023/11/08 04:24:25;;;;;;;16.67;13.27;;;;;;;-146.25;100.00;52508.09;2089399;28;35773;-72
2023/11/08 04:25:27;;;;;;;15.45;13.40;;;;;;;-146.25;100.00;52546.63;2089520;28;20451;-72
2023/11/08 04:26:32;;;;;;;18.35;14.25;;;;;;;-146.25;100.00;52522.28;2079410;28;37822;-72
2023/11/08 04:27:34;;;;;;;16.13;13.82;;;;;;;-146.25;100.00;52530.41;2080741;28;32683;-72
2023/11/08 04:28:40;;;;;;;15.85;13.98;;;;;;;-146.25;100.00;52530.41;2089583;28;34641;-71
2023/11/08 04:29:41;;;;;;;17.45;13.43;;;;;;;-146.25;100.00;52526.34;2088579;28;39129;-71
2023/11/08 04:30:45;;;;;;;16.08;13.02;;;;;;;-146.25;100.00;52542.56;2080586;28;20049;-72
2023/11/08 04:31:47;;;;;;;17.05;13.85;;;;;;;-146.25;100.00;52562.84;2072144;28;39674;-72
2023/11/08 04:32:49;;;;;;;17.75;13.75;;;;;;;-146.25;100.00;52530.41;2080972;28;24722;-72
2023/11/08 04:33:51;;;;;;;16.92;13.00;;;;;;;-146.25;100.00;52528.38;2088753;28;34017;-72
2023/11/08 04:34:53;;;;;;;16.70;13.15;;;;;;;-146.25;100.00;52532.44;2088675;28;37067;-72
2023/11/08 04:35:55;;;;;;;20.80;12.77;;;;;;;-146.25;100.00;52538.53;2071803;28;20856;-71
2023/11/08 04:36:57;;;;;;;15.73;12.80;;;;;;;-146.25;100.00;52540.53;2072289;28;36920;-71
2023/11/08 04:37:59;;;;;;;15.63;13.00;;;;;;;-146.25;100.00;52518.25;2088974;28;26783;-71
2023/11/08 04:39:02;;;;;;;14.88;12.95;;;;;;;-146.25;100.00;52530.41;2088929;28;33542;-71
2023/11/08 04:40:05;;;;;;;16.38;12.18;;;;;;;-146.25;100.00;52554.75;2079703;28;37886;-71